• Join FlightAware (Why Join?)
  • Login
  • US Flag 
02:00PM EDT


 

Airport Tracker/Info


-or-


 

Live Flight TrackerFlight Track Log ✈ SWA378 ✈ 01-May-2013 ✈ KBWI - KALB

Flight Track Log - Related Links

Times and Time Zones

All times are in EDT time to prevent confusion due to time zone crossing. See the SWA378 flight status page for this flight to view local times or setup timezone preferences in your user account.

Time Position Orientation Groundspeed Altitude Reporting Facility
EDT Latitude Longitude Course Direction KTS MPH feet Rate Location/Type
10:15PM 39.1114 -76.6056 270° West 176 203 3,800  Level Washington Center
10:16PM 39.1244 -76.5119 80° East 197 227 7,000 3,300 Climbing Washington Center
10:17PM 39.1314 -76.4103 85° East 232 267 10,500 3,660 Climbing Washington Center
10:18PM 39.1428 -76.2900 83° East 279 321 14,300 3,480 Climbing Washington Center
10:19PM 39.1600 -76.1672 80° East 325 374 17,600 2,940 Climbing Washington Center
10:20PM 39.1500 -76.5392 270° West  Level FlightAware Approximate
10:20PM 39.1750 -76.0361 82° East 340 391 20,300  Level Washington Center
10:21PM 39.2233 -75.9158 63° Northeast 359 413 23,000 2,640 Climbing Washington Center
10:22PM 39.2967 -75.8114 48° Northeast 367 422 25,500 2,820 Climbing Washington Center
10:23PM 39.3656 -75.7069 50° Northeast 381 438 28,700 1,680 Climbing Washington Center
10:24PM 39.4364 -75.6050 48° Northeast 381 438 29,000 120 Climbing Washington Center
10:25PM 39.5094 -75.5000 48° Northeast 381 438 29,000  Level Washington Center
10:26PM 39.5842 -75.3842 50° Northeast 392 451 29,000  Level Washington Center
10:27PM 39.6611 -75.2708 49° Northeast 411 473 29,000  Level Washington Center
10:28PM 39.7419 -75.1569 47° Northeast 416 479 29,000  Level Washington Center
10:29PM 39.8236 -75.0389 48° Northeast 410 472 29,000  Level New York Center
10:30PM 39.9028 -74.9244 48° Northeast 410 472 29,000  Level New York Center
10:31PM 39.9817 -74.8128 47° Northeast 416 479 29,000  Level New York Center
10:32PM 40.0539 -74.7139 46° Northeast 422 486 29,000  Level New York Center
10:33PM 40.1514 -74.6000 42° Northeast 417 480 29,000  Level New York Center
10:34PM 40.2294 -74.5117 41° Northeast 417 480 29,000  Level New York Center
10:35PM 40.3222 -74.4081 40° Northeast 417 480 29,000  Level New York Center
10:36PM 40.4581 -74.2483 42° Northeast 419 482 29,000  Level Boston Center
10:37PM 40.5431 -74.1469 42° Northeast 419 482 29,000 -360 Level Boston Center
10:39PM 40.6300 -74.0481 41° Northeast 413 475 28,300 -1,620 Descending Boston Center
10:40PM 40.7231 -73.9436 40° Northeast 387 445 25,500 -2,160 Descending Boston Center
10:41PM 40.7994 -73.8547 41° Northeast 368 423 24,000 -780 Descending Boston Center
10:42PM 40.8733 -73.7631 43° Northeast 363 418 24,000 -120 Level Boston Center
10:43PM 40.9536 -73.6631 43° Northeast 374 430 23,800 -540 Descending Boston Center
10:44PM 41.0731 -73.6047 20° North 399 459 23,000 -600 Descending Boston Center
10:45PM 41.1819 -73.5489 21° North 404 465 22,700 -720 Descending Boston Center
10:46PM 41.3008 -73.5453 North 404 465 21,600 -1,080 Descending Boston Center
10:47PM 41.4153 -73.5667 352° North 410 472 20,600 -1,080 Descending Boston Center
10:48PM 41.5275 -73.5853 353° North 405 466 19,500 -1,020 Descending Boston Center
10:49PM 41.6400 -73.6067 352° North 405 466 18,600 -660 Descending Boston Center
10:50PM 41.7397 -73.6225 353° North 405 466 18,200 -780 Descending Boston Center
10:51PM 41.8625 -73.6442 353° North 410 472 17,100 -1,320 Descending Boston Center
10:51PM 41.8939 -73.6478 355° North 409 471 16,600 -2,520 Descending Boston Center
10:51PM 41.9292 -73.6567 349° North 402 463 15,700 -2,640 Descending Boston Center
10:52PM 41.9583 -73.6600 355° North 402 463 14,700 -3,300 Descending Boston Center
10:52PM 42.0331 -73.6728 353° North 378 435 12,400 -3,120 Descending Boston Center
10:53PM 42.0519 -73.6758 353° North 381 438 11,600 -1,320 Descending Boston Center
10:53PM 42.1331 -73.6886 353° North 358 412 11,100 -600 Descending Boston Center
10:54PM 42.1600 -73.6975 346° North 367 422 11,000 -240 Descending Boston Center
10:54PM 42.2244 -73.7044 355° North 324 373 10,900 -420 Descending Boston Center
10:55PM 42.3081 -73.6978 North 287 330 10,400 -1,080 Descending Boston Center
10:56PM 42.3853 -73.6908 North 271 312 8,800 -1,620 Descending Boston Center
10:57PM 42.4686 -73.6842 North 273 314 7,200 -1,500 Descending Boston Center
10:58PM 42.5417 -73.6800 North 267 307 5,800 -1,560 Descending Boston Center
10:59PM 42.6147 -73.6758 North 268 308 4,100 -1,440 Descending Boston Center
11:00PM 42.6917 -73.6689 North 272 313 3,000 -600 Descending Boston Center
11:01PM 42.7606 -73.6675 North 249 287 2,900 -300 Descending Boston Center
11:02PM 42.8017 -73.7164 319° Northwest 190 219 2,400 -660 Descending Boston Center
11:03PM 42.8094 -73.7786 280° West 139 160 1,600 -780 Descending Boston Center
11:04PM 42.7881 -73.8094 227° Southwest 111 128 900 -720 Descending Boston Center